Time;durP1;ratioP1;P1;durP2;ratioP2;P2;SDS_P1;SDS_P2;PMS_P1;PMS_P2;Temp;Humidity;BMP_temperature;BMP_pressure;BME280_temperature;BME280_humidity;BME280_pressure;Samples;Min_cycle;Max_cycle;Signal;HPM_P1;HPM_P2
2022/11/18 00:01:34;;;;;;;3.07;2.10;;;10.20;99.90;;;;;;5007335;28;20192;-86
2022/11/18 00:04:00;;;;;;;6.90;2.20;;;10.30;99.90;;;;;;5002840;28;20219;-87
2022/11/18 00:06:28;;;;;;;2.70;2.20;;;10.30;99.90;;;;;;5007920;28;20193;-84
2022/11/18 00:08:54;;;;;;;3.60;3.30;;;10.40;99.90;;;;;;5008223;28;20208;-85
2022/11/18 00:14:22;;;;;;;2.23;2.13;;;10.40;99.90;;;;;;5008241;28;20264;-85
2022/11/18 00:16:55;;;;;;;2.07;1.93;;;10.60;99.90;;;;;;5000289;28;20209;-85
2022/11/18 00:19:32;;;;;;;2.47;2.27;;;10.70;99.90;;;;;;5008150;28;20221;-86
2022/11/18 00:22:00;;;;;;;3.47;2.40;;;10.70;99.90;;;;;;4999281;28;20200;-85
2022/11/18 00:24:26;;;;;;;2.47;2.27;;;10.70;99.90;;;;;;5007465;28;20186;-85
2022/11/18 00:26:53;;;;;;;3.57;2.40;;;10.70;99.90;;;;;;5008070;28;20731;-85
2022/11/18 00:29:19;;;;;;;3.17;2.33;;;10.80;99.90;;;;;;5005333;28;20217;-87
2022/11/18 00:31:45;;;;;;;2.53;2.20;;;10.80;99.90;;;;;;5005607;28;20190;-85
2022/11/18 00:34:12;;;;;;;2.57;2.37;;;10.80;99.90;;;;;;5008441;28;20269;-87
2022/11/18 00:36:39;;;;;;;3.53;2.10;;;10.70;99.90;;;;;;5008291;28;20213;-85
2022/11/18 00:39:05;;;;;;;2.27;2.00;;;10.70;99.90;;;;;;5008189;28;20270;-85
2022/11/18 00:44:15;;;;;;;2.77;2.30;;;10.80;99.90;;;;;;4989307;28;20198;-88
2022/11/18 00:46:40;;;;;;;2.30;2.10;;;10.90;99.90;;;;;;5000837;28;20195;-85
2022/11/18 00:49:06;;;;;;;2.50;2.07;;;11.00;99.90;;;;;;5006396;28;20282;-85
2022/11/18 00:51:32;;;;;;;2.33;2.03;;;11.00;99.90;;;;;;5006112;28;20201;-87
2022/11/18 00:53:58;;;;;;;3.83;2.10;;;11.10;99.90;;;;;;5006866;28;20193;-85
2022/11/18 00:56:23;;;;;;;2.20;2.00;;;11.10;99.90;;;;;;5004781;28;20210;-85
2022/11/18 00:58:49;;;;;;;2.83;2.40;;;11.00;99.90;;;;;;5006083;28;20253;-88
2022/11/18 01:01:15;;;;;;;2.97;2.10;;;10.90;99.90;;;;;;5005755;28;20270;-89
2022/11/18 01:03:40;;;;;;;2.30;2.10;;;10.90;99.90;;;;;;5005808;28;20229;-86
2022/11/18 01:06:06;;;;;;;2.80;2.20;;;10.90;99.90;;;;;;5005723;28;20194;-87
2022/11/18 01:08:32;;;;;;;3.47;2.13;;;10.70;99.90;;;;;;5005274;28;20191;-86
2022/11/18 01:13:18;;;;;;;2.40;2.20;;;10.70;99.90;;;;;;5004795;28;20274;-86
2022/11/18 01:13:43;;;;;;;3.00;2.07;;;10.80;99.90;;;;;;5005007;28;20201;-86
2022/11/18 01:16:09;;;;;;;4.63;2.37;;;10.50;99.90;;;;;;4996419;28;20245;-87
2022/11/18 01:18:35;;;;;;;3.80;2.07;;;10.40;99.90;;;;;;4996074;28;20257;-87
2022/11/18 01:21:02;;;;;;;2.20;2.00;;;10.40;99.90;;;;;;5006270;28;20196;-86
2022/11/18 01:23:28;;;;;;;2.17;1.83;;;10.30;99.90;;;;;;4992932;28;20193;-87
2022/11/18 01:25:54;;;;;;;5.70;2.27;;;10.20;99.90;;;;;;5006301;28;20680;-87
2022/11/18 01:28:20;;;;;;;6.10;2.07;;;10.00;99.90;;;;;;5005651;28;20201;-85
2022/11/18 01:30:45;;;;;;;2.80;2.00;;;10.00;99.90;;;;;;5006433;28;20200;-87
2022/11/18 01:33:12;;;;;;;2.83;1.90;;;10.10;99.90;;;;;;5010691;28;20209;-87
2022/11/18 01:35:40;;;;;;;2.53;1.90;;;10.30;99.90;;;;;;5010148;28;20719;-86
2022/11/18 01:38:07;;;;;;;3.50;1.70;;;10.50;99.90;;;;;;5011456;28;20190;-86
2022/11/18 01:40:34;;;;;;;2.00;1.80;;;10.60;99.90;;;;;;5010635;28;20210;-87
2022/11/18 01:43:00;;;;;;;2.57;1.87;;;10.60;99.90;;;;;;5009801;28;20213;-86
2022/11/18 01:45:29;;;;;;;2.70;1.90;;;10.60;99.90;;;;;;5009917;28;20278;-85
2022/11/18 01:48:16;;;;;;;3.10;2.00;;;10.50;99.90;;;;;;5009987;28;20189;-86
2022/11/18 01:50:59;;;;;;;2.70;1.90;;;10.30;99.90;;;;;;5008203;28;20237;-86
2022/11/18 01:53:30;;;;;;;2.37;1.83;;;10.30;99.90;;;;;;5009936;28;20189;-87
2022/11/18 01:56:00;;;;;;;2.10;1.90;;;10.40;99.90;;;;;;5010869;28;20726;-87
2022/11/18 01:58:36;;;;;;;4.23;2.10;;;10.50;99.90;;;;;;5007727;28;20250;-87
2022/11/18 02:01:04;;;;;;;2.77;1.70;;;10.60;99.90;;;;;;5008035;28;20180;-87
2022/11/18 02:03:30;;;;;;;2.33;1.80;;;10.40;99.90;;;;;;5008914;28;20663;-88
2022/11/18 02:05:58;;;;;;;2.27;1.83;;;10.30;99.90;;;;;;5007983;28;20189;-88
2022/11/18 02:08:24;;;;;;;2.13;2.00;;;10.10;99.90;;;;;;5008061;28;20184;-87
2022/11/18 02:10:50;;;;;;;2.00;1.80;;;9.90;99.90;;;;;;5006923;28;20796;-87
2022/11/18 02:13:17;;;;;;;3.83;2.00;;;9.90;99.90;;;;;;5007833;28;20220;-86
2022/11/18 02:15:45;;;;;;;2.83;2.00;;;9.80;99.90;;;;;;5008657;28;20198;-86
2022/11/18 02:18:34;;;;;;;2.13;1.93;;;9.90;99.90;;;;;;4987259;28;20187;-87
2022/11/18 02:21:15;;;;;;;1.83;1.73;;;10.00;99.90;;;;;;5004411;28;20185;-87
2022/11/18 02:23:56;;;;;;;1.83;1.73;;;9.90;99.90;;;;;;5008327;28;20243;-86
2022/11/18 02:26:27;;;;;;;1.80;1.70;;;9.90;99.90;;;;;;5004442;28;20269;-86
2022/11/18 02:29:05;;;;;;;2.07;1.87;;;9.90;99.90;;;;;;5007143;28;20208;-85
2022/11/18 02:31:43;;;;;;;2.27;2.07;;;9.80;99.90;;;;;;5007468;28;20194;-87
2022/11/18 02:34:37;;;;;;;2.03;1.80;;;9.80;99.90;;;;;;5008016;28;20191;-87
2022/11/18 02:37:16;;;;;;;4.33;1.90;;;10.00;99.90;;;;;;4993376;28;20203;-86
2022/11/18 02:40:17;;;;;;;2.93;1.80;;;10.00;99.90;;;;;;5006213;28;20218;-87
2022/11/18 02:42:46;;;;;;;2.40;1.70;;;9.80;99.90;;;;;;4979598;28;20190;-87
2022/11/18 02:45:16;;;;;;;3.40;2.00;;;9.70;99.90;;;;;;5006305;28;20240;-87
2022/11/18 02:47:45;;;;;;;1.80;1.70;;;9.70;99.90;;;;;;4994814;28;20170;-87
2022/11/18 02:50:16;;;;;;;1.87;1.53;;;9.70;99.90;;;;;;4997793;28;20212;-88
2022/11/18 02:52:43;;;;;;;2.17;1.60;;;9.70;99.90;;;;;;5010746;28;20205;-87
2022/11/18 02:55:10;;;;;;;2.60;1.70;;;9.60;99.90;;;;;;5003396;28;20186;-89
2022/11/18 02:57:38;;;;;;;3.00;1.70;;;9.50;99.90;;;;;;5006444;28;20210;-89
2022/11/18 03:00:05;;;;;;;1.93;1.70;;;9.40;99.90;;;;;;5007665;28;20210;-87
2022/11/18 03:02:42;;;;;;;2.33;1.80;;;9.40;99.90;;;;;;5009068;28;20179;-87
2022/11/18 03:05:17;;;;;;;2.37;1.63;;;9.40;99.90;;;;;;5011015;28;20197;-89
2022/11/18 03:07:45;;;;;;;2.30;1.70;;;9.40;99.90;;;;;;5020027;28;20151;-90
2022/11/18 03:10:11;;;;;;;2.50;1.80;;;9.40;99.90;;;;;;5019496;28;20213;-91
2022/11/18 03:12:54;;;;;;;1.67;1.57;;;9.40;99.90;;;;;;5014042;28;20179;-88
2022/11/18 03:15:29;;;;;;;2.27;1.50;;;9.50;99.90;;;;;;5008658;28;20186;-87
2022/11/18 03:18:13;;;;;;;2.70;1.80;;;9.40;99.90;;;;;;5006742;28;20245;-87
2022/11/18 03:21:05;;;;;;;3.07;1.70;;;9.40;99.90;;;;;;5006262;28;20209;-87
2022/11/18 03:23:58;;;;;;;2.37;1.50;;;9.40;99.90;;;;;;5006571;28;20218;-88
2022/11/18 03:26:50;;;;;;;3.70;1.90;;;9.40;99.90;;;;;;4968199;28;20221;-86
2022/11/18 03:29:29;;;;;;;2.73;1.90;;;9.40;99.90;;;;;;5001294;28;20245;-87
2022/11/18 03:32:15;;;;;;;2.07;1.63;;;9.50;99.90;;;;;;5005979;28;20194;-87
2022/11/18 03:34:49;;;;;;;2.57;1.80;;;9.40;99.90;;;;;;5004133;28;20215;-87
2022/11/18 03:37:18;;;;;;;2.43;1.80;;;9.30;99.90;;;;;;5006179;28;20217;-86
2022/11/18 03:39:55;;;;;;;2.90;1.70;;;9.30;99.90;;;;;;5005725;28;20206;-86
2022/11/18 03:42:40;;;;;;;1.97;1.77;;;9.30;99.90;;;;;;5006064;28;20217;-86
2022/11/18 03:45:32;;;;;;;1.90;1.80;;;9.30;99.90;;;;;;5005206;28;20182;-86
2022/11/18 03:48:09;;;;;;;2.30;1.80;;;9.30;99.90;;;;;;4998144;28;20764;-87
2022/11/18 03:50:44;;;;;;;2.07;1.87;;;9.40;99.90;;;;;;5006350;28;20232;-87
2022/11/18 03:53:12;;;;;;;1.80;1.70;;;9.40;99.90;;;;;;5005507;28;20198;-87
2022/11/18 03:55:41;;;;;;;3.23;1.70;;;9.40;99.90;;;;;;5007301;28;20192;-85
2022/11/18 03:58:27;;;;;;;1.70;1.60;;;9.40;99.90;;;;;;5007359;28;20556;-85
2022/11/18 04:01:02;;;;;;;1.60;1.50;;;9.30;99.90;;;;;;4994035;28;20268;-87
2022/11/18 04:03:28;;;;;;;1.80;1.70;;;9.40;99.90;;;;;;5007781;28;20165;-88
2022/11/18 04:06:03;;;;;;;2.80;1.80;;;9.40;99.90;;;;;;5007877;28;20182;-86
2022/11/18 04:08:35;;;;;;;2.40;1.50;;;9.30;99.90;;;;;;4982594;28;20191;-87
2022/11/18 04:12:01;;;;;;;1.50;1.40;;;9.30;99.90;;;;;;5009181;28;20198;-86
2022/11/18 04:13:57;;;;;;;1.60;1.50;;;9.40;99.90;;;;;;5006295;28;20664;-87
2022/11/18 04:16:22;;;;;;;1.60;1.50;;;9.40;99.90;;;;;;5009187;28;20202;-87
2022/11/18 04:18:48;;;;;;;2.30;1.60;;;9.30;99.90;;;;;;5009570;28;20203;-85
2022/11/18 04:21:14;;;;;;;2.00;1.80;;;9.40;99.90;;;;;;5007813;28;20202;-85
2022/11/18 04:23:39;;;;;;;2.27;1.50;;;9.40;99.90;;;;;;5007201;28;20205;-85
2022/11/18 04:26:05;;;;;;;1.67;1.57;;;9.40;99.90;;;;;;4996930;28;20194;-86
2022/11/18 04:28:31;;;;;;;2.93;1.50;;;9.30;99.90;;;;;;5005258;28;20197;-88
2022/11/18 04:30:56;;;;;;;2.90;1.60;;;9.20;99.90;;;;;;5005700;28;20190;-86
2022/11/18 04:33:22;;;;;;;1.57;1.43;;;9.10;99.90;;;;;;4996711;28;20746;-87
2022/11/18 04:35:48;;;;;;;1.60;1.50;;;9.20;99.90;;;;;;5005515;28;20186;-88
2022/11/18 04:38:13;;;;;;;1.60;1.50;;;9.30;99.90;;;;;;5000844;28;20182;-87
2022/11/18 04:40:39;;;;;;;2.60;1.43;;;9.10;99.90;;;;;;5005354;28;20217;-86
2022/11/18 04:43:05;;;;;;;1.63;1.50;;;9.10;99.90;;;;;;5005664;28;20190;-87
2022/11/18 04:45:30;;;;;;;3.20;1.50;;;9.10;99.90;;;;;;5006141;28;20190;-86
2022/11/18 04:47:56;;;;;;;1.53;1.40;;;9.10;99.90;;;;;;5006400;28;20178;-86
2022/11/18 04:50:22;;;;;;;1.37;1.30;;;9.00;99.90;;;;;;5006003;28;20218;-85
2022/11/18 04:52:47;;;;;;;1.50;1.40;;;8.90;99.90;;;;;;5005533;28;20214;-87
2022/11/18 04:55:13;;;;;;;1.50;1.40;;;9.10;99.90;;;;;;5006895;28;20198;-86
2022/11/18 04:57:38;;;;;;;2.70;1.50;;;9.00;99.90;;;;;;5006706;28;20210;-87
2022/11/18 05:00:05;;;;;;;1.63;1.37;;;9.00;99.90;;;;;;5006974;28;20210;-86
2022/11/18 05:02:31;;;;;;;1.10;1.10;;;8.90;99.90;;;;;;5002659;28;20179;-87
2022/11/18 05:04:56;;;;;;;1.53;1.40;;;8.90;99.90;;;;;;4988068;28;20282;-88
2022/11/18 05:07:22;;;;;;;1.63;1.43;;;8.90;99.90;;;;;;4995890;28;20209;-86
2022/11/18 05:09:47;;;;;;;1.30;1.30;;;8.80;99.90;;;;;;5014636;28;20215;-85
2022/11/18 05:14:58;;;;;;;1.80;1.30;;;8.80;99.90;;;;;;5004479;28;20201;-86
2022/11/18 05:17:23;;;;;;;1.33;1.20;;;8.60;99.90;;;;;;5008911;28;20282;-86
2022/11/18 05:19:49;;;;;;;1.00;1.00;;;8.70;99.90;;;;;;4988835;28;20213;-88
2022/11/18 05:22:15;;;;;;;1.20;1.20;;;8.60;99.90;;;;;;5009661;28;20190;-86
2022/11/18 05:24:41;;;;;;;1.07;1.07;;;8.60;99.90;;;;;;5016069;28;20190;-85
2022/11/18 05:27:06;;;;;;;1.10;1.10;;;8.60;99.90;;;;;;5011863;28;20197;-85
2022/11/18 05:29:32;;;;;;;1.77;1.10;;;8.40;99.90;;;;;;5007953;28;20211;-87
2022/11/18 05:31:58;;;;;;;1.17;1.17;;;8.40;99.90;;;;;;5002878;28;20187;-84
2022/11/18 05:34:23;;;;;;;1.17;1.17;;;8.40;99.90;;;;;;4997032;28;20187;-86
2022/11/18 05:36:49;;;;;;;2.23;1.30;;;8.40;99.90;;;;;;5005455;28;20376;-86
2022/11/18 05:39:15;;;;;;;1.23;1.23;;;8.40;99.90;;;;;;5005495;28;20285;-86
2022/11/18 05:44:25;;;;;;;2.10;1.40;;;8.30;99.90;;;;;;5003773;28;20208;-86
2022/11/18 05:46:51;;;;;;;1.50;1.40;;;8.30;99.90;;;;;;5009115;28;20857;-88
2022/11/18 05:49:17;;;;;;;1.50;1.40;;;8.40;99.90;;;;;;5009330;28;20198;-87
2022/11/18 05:51:42;;;;;;;1.37;1.37;;;8.30;99.90;;;;;;5007922;28;20212;-86
2022/11/18 05:54:10;;;;;;;2.03;1.57;;;8.30;99.90;;;;;;5023500;28;20181;-86
2022/11/18 05:56:43;;;;;;;1.40;1.30;;;8.30;99.90;;;;;;5007939;28;20202;-85
2022/11/18 05:59:09;;;;;;;1.50;1.40;;;8.40;99.90;;;;;;5008867;28;20250;-87
2022/11/18 06:01:55;;;;;;;1.53;1.43;;;8.30;99.90;;;;;;5009804;28;20246;-86
2022/11/18 06:04:36;;;;;;;1.43;1.33;;;8.30;99.90;;;;;;5001806;28;20178;-85
2022/11/18 06:07:34;;;;;;;1.50;1.40;;;8.30;99.90;;;;;;5010026;28;20197;-87
2022/11/18 06:10:02;;;;;;;1.30;1.30;;;8.20;99.90;;;;;;4994939;28;20226;-88
2022/11/18 06:12:30;;;;;;;2.43;1.43;;;8.20;99.90;;;;;;5010396;28;20191;-85
2022/11/18 06:15:08;;;;;;;1.90;1.70;;;8.20;99.90;;;;;;5004448;28;20195;-88
2022/11/18 06:17:40;;;;;;;1.60;1.50;;;8.30;99.90;;;;;;5008208;28;20233;-87
2022/11/18 06:20:07;;;;;;;1.30;1.20;;;8.30;99.90;;;;;;5009384;28;20326;-88
2022/11/18 06:22:34;;;;;;;3.40;1.20;;;8.30;99.90;;;;;;5008917;28;20671;-87
2022/11/18 06:25:00;;;;;;;1.43;1.33;;;8.40;99.90;;;;;;5012212;28;20229;-87
2022/11/18 06:27:26;;;;;;;1.40;1.30;;;8.30;99.90;;;;;;5012119;28;20190;-89
2022/11/18 06:29:51;;;;;;;1.63;1.20;;;8.30;99.90;;;;;;5007634;28;20464;-88
2022/11/18 06:32:17;;;;;;;1.10;1.10;;;8.30;99.90;;;;;;5010455;28;20202;-87
2022/11/18 06:34:42;;;;;;;2.70;1.27;;;8.30;99.90;;;;;;5007411;28;20685;-87
2022/11/18 06:37:16;;;;;;;1.47;1.37;;;8.30;99.90;;;;;;5010247;28;20575;-86
2022/11/18 06:39:42;;;;;;;1.87;1.20;;;8.30;99.90;;;;;;5010578;28;20214;-86
2022/11/18 06:42:08;;;;;;;1.50;1.40;;;8.20;99.90;;;;;;5011472;28;20255;-87
2022/11/18 06:44:34;;;;;;;2.57;1.70;;;8.30;99.90;;;;;;5009149;28;20273;-87
2022/11/18 06:47:01;;;;;;;1.43;1.30;;;8.30;99.90;;;;;;5012393;28;20194;-85
2022/11/18 06:49:27;;;;;;;1.70;1.40;;;8.30;99.90;;;;;;5014562;28;20201;-86
2022/11/18 06:51:53;;;;;;;2.10;1.90;;;8.30;99.90;;;;;;5010430;28;20276;-88
2022/11/18 06:54:19;;;;;;;1.47;1.37;;;8.30;99.90;;;;;;5009908;28;20194;-86
2022/11/18 06:56:45;;;;;;;1.57;1.50;;;8.40;99.90;;;;;;5000955;28;20278;-86
2022/11/18 06:59:11;;;;;;;2.10;1.60;;;8.30;99.90;;;;;;5010780;28;20245;-89
2022/11/18 07:01:39;;;;;;;1.80;1.70;;;8.40;99.90;;;;;;5009045;28;20182;-86
2022/11/18 07:04:05;;;;;;;3.27;2.10;;;8.30;99.90;;;;;;5009388;28;20238;-89
2022/11/18 07:06:33;;;;;;;2.70;2.00;;;8.30;99.90;;;;;;4999020;28;20206;-88
2022/11/18 07:09:00;;;;;;;2.00;1.90;;;8.30;99.90;;;;;;5009271;28;20206;-88
2022/11/18 07:11:27;;;;;;;1.70;1.60;;;8.30;99.90;;;;;;5010344;28;20205;-89
2022/11/18 07:13:53;;;;;;;1.63;1.50;;;8.30;99.90;;;;;;5010069;28;20197;-89
2022/11/18 07:16:21;;;;;;;1.77;1.67;;;8.30;99.90;;;;;;5000370;28;20216;-87
2022/11/18 07:18:48;;;;;;;1.87;1.73;;;8.30;99.90;;;;;;5010579;28;20222;-87
2022/11/18 07:21:19;;;;;;;2.03;1.80;;;8.30;99.90;;;;;;5009331;28;20273;-86
2022/11/18 07:23:46;;;;;;;2.90;1.97;;;8.40;99.90;;;;;;5011830;28;20228;-86
2022/11/18 07:26:12;;;;;;;2.53;1.90;;;8.50;99.90;;;;;;5011139;28;20194;-86
2022/11/18 07:28:38;;;;;;;2.20;1.90;;;8.40;99.90;;;;;;5010105;28;20178;-88
2022/11/18 07:31:05;;;;;;;2.73;2.00;;;8.50;99.90;;;;;;5010627;28;20194;-88
2022/11/18 07:33:32;;;;;;;2.20;2.00;;;8.50;99.90;;;;;;5011259;28;20194;-88
2022/11/18 07:36:03;;;;;;;2.50;2.30;;;8.50;99.90;;;;;;5012296;28;20196;-88
2022/11/18 07:38:29;;;;;;;3.23;2.10;;;8.40;99.90;;;;;;5011076;28;20369;-88
2022/11/18 07:41:01;;;;;;;3.57;2.30;;;8.40;99.90;;;;;;5012299;28;20230;-86
2022/11/18 07:43:27;;;;;;;3.00;2.70;;;8.50;99.90;;;;;;5012099;28;20198;-86
2022/11/18 07:45:53;;;;;;;3.20;2.90;;;8.40;99.90;;;;;;5008749;28;20212;-86
2022/11/18 07:48:18;;;;;;;2.70;2.50;;;8.40;99.90;;;;;;5008864;28;20189;-88
2022/11/18 07:50:44;;;;;;;2.97;2.33;;;8.50;99.90;;;;;;5010703;28;20207;-86
2022/11/18 07:53:10;;;;;;;3.33;2.30;;;8.50;99.90;;;;;;5014015;28;20205;-87
2022/11/18 07:55:35;;;;;;;3.47;2.30;;;8.50;99.90;;;;;;5011213;28;20243;-87
2022/11/18 07:58:01;;;;;;;2.17;1.97;;;8.60;99.90;;;;;;5010558;28;20203;-86
2022/11/18 08:00:27;;;;;;;2.60;2.30;;;8.60;99.90;;;;;;5010507;28;20221;-87
2022/11/18 08:02:52;;;;;;;4.27;2.00;;;8.60;99.90;;;;;;5010390;28;20187;-88
2022/11/18 08:05:18;;;;;;;5.00;2.13;;;8.60;99.90;;;;;;5009962;28;20193;-85
2022/11/18 08:07:44;;;;;;;2.40;2.20;;;8.70;99.90;;;;;;4994340;28;20190;-86
2022/11/18 08:10:09;;;;;;;2.20;2.00;;;8.70;99.90;;;;;;5009585;28;20220;-86
2022/11/18 08:12:35;;;;;;;1.80;1.70;;;8.70;99.90;;;;;;5009295;28;20194;-87
2022/11/18 08:15:00;;;;;;;2.33;2.13;;;8.60;99.90;;;;;;5009705;28;20237;-88
2022/11/18 08:17:26;;;;;;;2.10;2.00;;;8.60;99.90;;;;;;5009819;28;20202;-85
2022/11/18 08:19:52;;;;;;;2.00;1.90;;;8.60;99.90;;;;;;5009941;28;20217;-86
2022/11/18 08:22:19;;;;;;;2.03;1.93;;;8.70;99.90;;;;;;5009084;28;20261;-87
2022/11/18 08:24:46;;;;;;;2.30;2.10;;;8.80;99.90;;;;;;5009225;28;20174;-86
2022/11/18 08:27:12;;;;;;;2.37;1.70;;;8.80;99.90;;;;;;5010148;28;20201;-86
2022/11/18 08:29:38;;;;;;;2.90;1.87;;;8.80;99.90;;;;;;4980001;28;20214;-86
2022/11/18 08:32:05;;;;;;;2.33;2.10;;;8.80;99.90;;;;;;5009155;28;20221;-86
2022/11/18 08:34:31;;;;;;;2.03;1.90;;;8.70;99.90;;;;;;5009081;28;20194;-87
2022/11/18 08:36:56;;;;;;;2.10;1.90;;;8.80;99.90;;;;;;5009716;28;20257;-86
2022/11/18 08:39:22;;;;;;;2.77;2.30;;;8.80;99.90;;;;;;5008799;28;20214;-88
2022/11/18 08:41:48;;;;;;;2.00;1.90;;;8.80;99.90;;;;;;5009325;28;20193;-87
2022/11/18 08:44:15;;;;;;;2.63;1.80;;;8.90;99.90;;;;;;5009198;28;20522;-87
2022/11/18 08:46:44;;;;;;;2.57;2.10;;;9.00;99.90;;;;;;5011092;28;20228;-87
2022/11/18 08:49:10;;;;;;;2.43;2.13;;;9.10;99.90;;;;;;4994328;28;20226;-89
2022/11/18 08:51:36;;;;;;;2.77;2.27;;;9.00;99.90;;;;;;5011876;28;20182;-88
2022/11/18 08:54:02;;;;;;;2.33;2.13;;;9.00;99.90;;;;;;5008947;28;20245;-88
2022/11/18 08:56:28;;;;;;;2.50;2.30;;;8.90;99.90;;;;;;5008889;28;20217;-87
2022/11/18 08:58:54;;;;;;;2.07;1.90;;;8.90;99.90;;;;;;5006850;28;20370;-87
2022/11/18 09:01:20;;;;;;;2.73;2.53;;;8.90;99.90;;;;;;5006908;28;20194;-88
2022/11/18 09:03:46;;;;;;;2.67;2.30;;;8.90;99.90;;;;;;5008236;28;20253;-87
2022/11/18 09:06:21;;;;;;;2.57;2.37;;;9.00;99.90;;;;;;5008556;28;20821;-90
2022/11/18 09:08:47;;;;;;;2.80;2.47;;;8.90;99.90;;;;;;5010394;28;20213;-87
2022/11/18 09:11:15;;;;;;;2.70;2.50;;;8.90;99.90;;;;;;5010469;28;20186;-87
2022/11/18 09:13:41;;;;;;;2.90;2.47;;;8.80;99.90;;;;;;5011086;28;20197;-89
2022/11/18 09:16:07;;;;;;;3.47;2.70;;;9.00;99.90;;;;;;5011399;28;20233;-86
2022/11/18 09:18:33;;;;;;;2.73;2.47;;;8.90;99.90;;;;;;5007614;28;20182;-88
2022/11/18 09:21:06;;;;;;;3.97;2.53;;;8.90;99.90;;;;;;4997538;28;20568;-87
2022/11/18 09:23:34;;;;;;;3.63;2.50;;;8.90;99.90;;;;;;5007390;28;20183;-86
2022/11/18 09:26:01;;;;;;;2.60;2.40;;;9.20;99.90;;;;;;5000756;28;20186;-86
2022/11/18 09:28:27;;;;;;;2.80;2.60;;;9.30;99.90;;;;;;5009055;28;20201;-87
2022/11/18 09:30:53;;;;;;;4.30;2.63;;;9.40;99.90;;;;;;5008616;28;20186;-88
2022/11/18 09:33:18;;;;;;;3.37;2.70;;;9.30;99.90;;;;;;4997491;28;20202;-87
2022/11/18 09:35:44;;;;;;;2.80;2.50;;;9.30;99.90;;;;;;5008966;28;20282;-86
2022/11/18 09:38:10;;;;;;;2.87;2.67;;;9.30;99.90;;;;;;5009122;28;20202;-87
2022/11/18 09:41:06;;;;;;;4.27;2.57;;;9.30;99.90;;;;;;4994275;28;20207;-88
2022/11/18 09:43:56;;;;;;;3.43;2.80;;;9.40;99.90;;;;;;5009484;28;20191;-87
2022/11/18 09:46:29;;;;;;;4.13;2.60;;;9.50;99.90;;;;;;5006201;28;20190;-87
2022/11/18 09:49:13;;;;;;;3.40;3.10;;;9.50;99.90;;;;;;5010130;28;20203;-88
2022/11/18 09:51:48;;;;;;;3.40;2.67;;;9.50;99.90;;;;;;5010375;28;20282;-88
2022/11/18 09:54:32;;;;;;;3.50;3.17;;;9.60;99.90;;;;;;5014713;28;20182;-88
2022/11/18 09:56:58;;;;;;;6.10;3.03;;;9.50;99.90;;;;;;5014506;28;20206;-86
2022/11/18 09:59:27;;;;;;;3.13;2.87;;;9.50;99.90;;;;;;5015643;28;20206;-87
2022/11/18 10:02:01;;;;;;;3.27;2.97;;;9.50;99.90;;;;;;5017009;28;20178;-89
2022/11/18 10:04:27;;;;;;;3.20;2.90;;;9.60;99.90;;;;;;5013275;28;20201;-86
2022/11/18 10:06:53;;;;;;;3.50;3.03;;;9.60;99.90;;;;;;5013834;28;20775;-86
2022/11/18 10:09:18;;;;;;;3.57;3.27;;;9.70;99.90;;;;;;5011838;28;20201;-87
2022/11/18 10:12:02;;;;;;;3.70;3.30;;;9.60;99.90;;;;;;5012808;28;20190;-86
2022/11/18 10:14:41;;;;;;;3.60;2.80;;;9.80;99.90;;;;;;5014491;28;20253;-86
2022/11/18 10:17:28;;;;;;;6.10;3.80;;;9.70;99.90;;;;;;5011874;28;20288;-87
2022/11/18 10:20:21;;;;;;;4.07;3.10;;;9.80;99.90;;;;;;5013389;28;20237;-87
2022/11/18 10:22:53;;;;;;;3.93;3.20;;;9.80;99.90;;;;;;5012248;28;20648;-85
2022/11/18 10:25:19;;;;;;;5.73;3.50;;;9.90;99.90;;;;;;5001757;28;20201;-87
2022/11/18 10:27:47;;;;;;;17.03;12.97;;;9.90;99.90;;;;;;5015319;28;20276;-88
2022/11/18 10:30:18;;;;;;;4.30;3.63;;;9.90;99.90;;;;;;5013018;28;20234;-85
2022/11/18 10:32:59;;;;;;;6.47;3.60;;;9.90;99.90;;;;;;5011112;28;20214;-86
2022/11/18 10:35:37;;;;;;;5.17;3.80;;;9.90;99.90;;;;;;5009641;28;20174;-88
2022/11/18 10:38:19;;;;;;;5.10;3.53;;;9.90;99.90;;;;;;5008913;28;20241;-88
2022/11/18 10:41:19;;;;;;;3.90;3.23;;;9.90;99.90;;;;;;5009542;28;20222;-87
2022/11/18 10:43:55;;;;;;;5.40;3.83;;;9.90;99.90;;;;;;4972526;28;20202;-87
2022/11/18 10:46:31;;;;;;;3.67;3.30;;;10.00;99.90;;;;;;5011823;28;20220;-87
2022/11/18 10:49:09;;;;;;;5.63;3.70;;;10.00;99.90;;;;;;5009792;28;20212;-86
2022/11/18 10:51:47;;;;;;;6.20;4.77;;;10.00;99.90;;;;;;4994807;28;20265;-87
2022/11/18 10:54:21;;;;;;;3.97;3.40;;;10.20;99.90;;;;;;5010035;28;20187;-86
2022/11/18 10:56:54;;;;;;;3.30;3.00;;;10.30;99.90;;;;;;5008984;28;20198;-85
2022/11/18 10:59:31;;;;;;;4.53;3.00;;;10.40;99.90;;;;;;5003681;28;20275;-89
2022/11/18 11:02:22;;;;;;;3.57;3.23;;;10.30;99.90;;;;;;5008304;28;20248;-85
2022/11/18 11:04:49;;;;;;;5.47;3.03;;;10.20;99.90;;;;;;4996538;28;20230;-87
2022/11/18 11:07:32;;;;;;;6.27;3.40;;;10.30;99.90;;;;;;5000626;28;20190;-87
2022/11/18 11:10:03;;;;;;;4.63;2.87;;;10.30;99.90;;;;;;5013716;28;20199;-87
2022/11/18 11:12:58;;;;;;;3.10;2.70;;;10.50;99.90;;;;;;5009565;28;20195;-87
2022/11/18 11:15:47;;;;;;;5.87;2.77;;;10.60;99.90;;;;;;4988876;28;20191;-88
2022/11/18 11:18:42;;;;;;;4.07;2.87;;;10.60;99.90;;;;;;5008813;28;20199;-89
2022/11/18 11:21:18;;;;;;;6.13;2.80;;;10.60;99.90;;;;;;5009856;28;20202;-85
2022/11/18 11:23:45;;;;;;;4.03;2.50;;;10.60;99.90;;;;;;5005525;28;20186;-87
2022/11/18 11:26:36;;;;;;;6.63;2.83;;;10.50;99.90;;;;;;5010191;28;20254;-87
2022/11/18 11:29:20;;;;;;;5.23;3.00;;;10.60;99.90;;;;;;5011739;28;20209;-87
2022/11/18 11:32:18;;;;;;;3.93;3.30;;;10.70;99.90;;;;;;5012797;28;20186;-87
2022/11/18 11:34:56;;;;;;;4.80;3.20;;;10.70;99.90;;;;;;4994281;28;20232;-88
2022/11/18 11:37:37;;;;;;;4.83;3.27;;;10.70;99.90;;;;;;5006870;28;20207;-87
2022/11/18 11:40:28;;;;;;;4.43;3.27;;;10.70;99.90;;;;;;5010797;28;20207;-86
2022/11/18 11:43:24;;;;;;;4.90;3.50;;;10.60;99.90;;;;;;5012211;28;20200;-86
2022/11/18 11:46:17;;;;;;;5.50;3.20;;;10.60;99.90;;;;;;5003815;28;20276;-87
2022/11/18 11:48:51;;;;;;;3.37;2.97;;;10.60;99.90;;;;;;5005206;28;20180;-89
2022/11/18 11:51:38;;;;;;;4.80;3.13;;;10.60;99.90;;;;;;5008308;28;20183;-86
2022/11/18 11:54:36;;;;;;;3.97;3.00;;;10.60;99.90;;;;;;5009988;28;20203;-86
2022/11/18 11:57:20;;;;;;;4.00;3.03;;;10.70;99.90;;;;;;5008925;28;20193;-88
2022/11/18 12:00:03;;;;;;;3.03;2.83;;;10.60;99.90;;;;;;5005785;28;20304;-87
2022/11/18 12:02:58;;;;;;;8.00;3.90;;;10.60;99.90;;;;;;5006070;28;20270;-87
2022/11/18 12:05:38;;;;;;;6.67;5.43;;;10.70;99.90;;;;;;5006746;28;20168;-88
2022/11/18 12:08:13;;;;;;;4.30;3.87;;;10.80;99.90;;;;;;5006147;28;20240;-86
2022/11/18 12:11:06;;;;;;;5.23;3.33;;;10.70;99.90;;;;;;5004220;28;20207;-87
2022/11/18 12:14:01;;;;;;;5.13;3.57;;;10.70;99.90;;;;;;4998915;28;20235;-89
2022/11/18 12:16:27;;;;;;;7.40;3.70;;;10.60;99.90;;;;;;5009404;28;20264;-87
2022/11/18 12:19:14;;;;;;;6.77;2.80;;;10.80;99.90;;;;;;5011027;28;20219;-88
2022/11/18 12:21:46;;;;;;;3.50;3.20;;;10.80;99.90;;;;;;5011021;28;20285;-86
2022/11/18 12:24:42;;;;;;;5.80;2.57;;;11.00;99.90;;;;;;5009577;28;20231;-85
2022/11/18 12:27:33;;;;;;;4.73;3.00;;;11.10;99.90;;;;;;5007990;28;20180;-87
2022/11/18 12:30:02;;;;;;;8.13;3.07;;;11.10;99.90;;;;;;5007113;28;20275;-87
2022/11/18 12:32:42;;;;;;;6.47;3.17;;;11.10;99.90;;;;;;5009233;28;20267;-87
2022/11/18 12:35:10;;;;;;;5.27;2.90;;;11.10;99.90;;;;;;5008354;28;20728;-86
2022/11/18 12:37:51;;;;;;;5.13;3.60;;;11.10;99.90;;;;;;5008636;28;20271;-86
2022/11/18 12:40:34;;;;;;;4.03;2.90;;;11.10;99.90;;;;;;5008379;28;20214;-87
2022/11/18 12:45:49;;;;;;;2.67;1.67;;;11.10;99.90;;;;;;4997090;28;20191;-87
2022/11/18 12:48:31;;;;;;;2.00;1.90;;;11.10;99.90;;;;;;5009142;28;20187;-89
2022/11/18 12:51:20;;;;;;;2.90;1.80;;;11.30;99.90;;;;;;5007590;28;20188;-86
2022/11/18 12:53:48;;;;;;;3.50;1.70;;;11.40;99.90;;;;;;5004523;28;20221;-88
2022/11/18 12:56:16;;;;;;;2.00;1.80;;;11.50;99.90;;;;;;5007116;28;20189;-87
2022/11/18 12:58:58;;;;;;;3.37;2.03;;;11.40;99.90;;;;;;5008549;28;20246;-87
2022/11/18 13:01:27;;;;;;;5.47;2.23;;;11.40;99.90;;;;;;5007853;28;20239;-89
2022/11/18 13:04:15;;;;;;;3.47;2.17;;;11.30;99.90;;;;;;5009322;28;20189;-87
2022/11/18 13:06:41;;;;;;;4.43;2.23;;;11.20;99.90;;;;;;5006944;28;20197;-89
2022/11/18 13:09:15;;;;;;;3.03;2.50;;;11.20;99.90;;;;;;5009603;28;20227;-87
2022/11/18 13:11:54;;;;;;;2.47;2.17;;;11.30;99.90;;;;;;4991061;28;20196;-87
2022/11/18 13:20:35;;;;;;;4.60;2.23;;;11.40;99.90;;;;;;5005678;28;20268;-87
2022/11/18 13:25:55;;;;;;;3.63;2.30;;;11.30;99.90;;;;;;5006472;28;20319;-86
2022/11/18 13:28:37;;;;;;;2.27;1.80;;;11.40;99.90;;;;;;5009545;28;20201;-87
2022/11/18 13:31:24;;;;;;;3.73;2.10;;;11.40;99.90;;;;;;5011448;28;20200;-87
2022/11/18 13:33:51;;;;;;;2.90;1.90;;;11.30;99.90;;;;;;5015492;28;20211;-84
2022/11/18 13:36:19;;;;;;;3.43;1.90;;;11.30;99.90;;;;;;5014205;28;20281;-89
2022/11/18 13:38:58;;;;;;;5.37;2.10;;;11.30;99.90;;;;;;5008959;28;20189;-87
2022/11/18 13:41:31;;;;;;;2.33;2.00;;;11.40;99.90;;;;;;5019923;28;20214;-89